sensor_id;sensor_type;location;lat;lon;timestamp;pressure;altitude;pressure_sealevel;temperature;humidity
38253;BME280;24785;52.372;20.672;2023-05-23T00:08:49;100734.28;;;7.12;100.00
38253;BME280;24785;52.372;20.672;2023-05-23T00:18:50;100735.16;;;7.01;100.00
38253;BME280;24785;52.372;20.672;2023-05-23T00:28:51;100732.31;;;6.74;100.00
38253;BME280;24785;52.372;20.672;2023-05-23T00:38:52;100723.81;;;6.60;100.00
38253;BME280;24785;52.372;20.672;2023-05-23T00:48:53;100719.53;;;6.59;100.00
38253;BME280;24785;52.372;20.672;2023-05-23T00:58:54;100725.41;;;6.45;100.00
38253;BME280;24785;52.372;20.672;2023-05-23T01:08:55;100733.34;;;6.28;100.00
38253;BME280;24785;52.372;20.672;2023-05-23T01:19:11;100712.72;;;6.35;100.00
38253;BME280;24785;52.372;20.672;2023-05-23T01:29:23;100720.59;;;6.30;100.00
38253;BME280;24785;52.372;20.672;2023-05-23T01:39:25;100694.47;;;6.27;100.00
38253;BME280;24785;52.372;20.672;2023-05-23T01:49:26;100697.19;;;6.15;100.00
38253;BME280;24785;52.372;20.672;2023-05-23T01:59:27;100694.06;;;6.07;100.00
38253;BME280;24785;52.372;20.672;2023-05-23T02:09:28;100683.13;;;5.91;100.00
38253;BME280;24785;52.372;20.672;2023-05-23T02:19:29;100682.91;;;5.81;100.00
38253;BME280;24785;52.372;20.672;2023-05-23T02:29:29;100666.63;;;5.78;100.00
38253;BME280;24785;52.372;20.672;2023-05-23T02:39:30;100670.19;;;5.83;100.00
38253;BME280;24785;52.372;20.672;2023-05-23T02:49:31;100679.19;;;5.94;100.00
38253;BME280;24785;52.372;20.672;2023-05-23T02:59:32;100673.41;;;5.97;100.00
38253;BME280;24785;52.372;20.672;2023-05-23T03:09:33;100678.56;;;6.15;100.00
38253;BME280;24785;52.372;20.672;2023-05-23T03:19:34;100670.38;;;7.56;100.00
38253;BME280;24785;52.372;20.672;2023-05-23T03:29:35;100696.34;;;9.64;100.00
38253;BME280;24785;52.372;20.672;2023-05-23T03:39:36;100685.88;;;12.17;95.86
38253;BME280;24785;52.372;20.672;2023-05-23T03:49:37;100678.59;;;13.53;79.22
38253;BME280;24785;52.372;20.672;2023-05-23T03:59:38;100665.19;;;15.31;71.30
38253;BME280;24785;52.372;20.672;2023-05-23T04:09:39;100655.94;;;15.65;68.50
38253;BME280;24785;52.372;20.672;2023-05-23T04:19:39;100649.66;;;16.64;68.33
38253;BME280;24785;52.372;20.672;2023-05-23T04:29:40;100642.22;;;17.71;63.36
38253;BME280;24785;52.372;20.672;2023-05-23T04:39:41;100645.78;;;18.58;61.45
38253;BME280;24785;52.372;20.672;2023-05-23T04:49:42;100647.28;;;17.64;64.01
38253;BME280;24785;52.372;20.672;2023-05-23T04:59:43;100638.88;;;17.74;64.41
38253;BME280;24785;52.372;20.672;2023-05-23T05:09:44;100639.25;;;17.42;66.51
38253;BME280;24785;52.372;20.672;2023-05-23T05:19:45;100627.72;;;17.67;66.44
38253;BME280;24785;52.372;20.672;2023-05-23T05:29:46;100617.91;;;18.06;63.38
38253;BME280;24785;52.372;20.672;2023-05-23T05:39:48;100616.09;;;17.75;66.92
38253;BME280;24785;52.372;20.672;2023-05-23T05:49:49;100620.44;;;18.45;65.74
38253;BME280;24785;52.372;20.672;2023-05-23T05:59:50;100609.25;;;18.64;64.28
38253;BME280;24785;52.372;20.672;2023-05-23T06:09:51;100596.72;;;18.98;64.14
38253;BME280;24785;52.372;20.672;2023-05-23T06:19:52;100586.94;;;19.35;59.99
38253;BME280;24785;52.372;20.672;2023-05-23T06:29:53;100567.41;;;19.71;58.27
38253;BME280;24785;52.372;20.672;2023-05-23T06:39:54;100554.34;;;20.06;57.53
38253;BME280;24785;52.372;20.672;2023-05-23T06:49:55;100550.78;;;20.47;54.49
38253;BME280;24785;52.372;20.672;2023-05-23T06:59:55;100538.22;;;20.67;53.61
38253;BME280;24785;52.372;20.672;2023-05-23T07:09:56;100531.66;;;20.92;51.51
38253;BME280;24785;52.372;20.672;2023-05-23T07:19:57;100511.34;;;21.02;49.14
38253;BME280;24785;52.372;20.672;2023-05-23T07:29:58;100502.59;;;21.21;48.45
38253;BME280;24785;52.372;20.672;2023-05-23T07:39:59;100490.06;;;21.56;46.21
38253;BME280;24785;52.372;20.672;2023-05-23T07:50:00;100476.34;;;21.81;43.77
38253;BME280;24785;52.372;20.672;2023-05-23T08:00:02;100480.78;;;22.01;44.17
38253;BME280;24785;52.372;20.672;2023-05-23T08:10:05;100469.94;;;22.17;43.72
38253;BME280;24785;52.372;20.672;2023-05-23T08:20:06;100467.94;;;22.29;44.82
38253;BME280;24785;52.372;20.672;2023-05-23T08:30:08;100463.81;;;22.36;42.43
38253;BME280;24785;52.372;20.672;2023-05-23T08:40:13;100454.09;;;22.54;41.96
38253;BME280;24785;52.372;20.672;2023-05-23T08:50:18;100447.06;;;22.84;41.21
38253;BME280;24785;52.372;20.672;2023-05-23T09:00:19;100444.28;;;23.35;39.82
38253;BME280;24785;52.372;20.672;2023-05-23T09:10:22;100421.50;;;22.92;39.69
38253;BME280;24785;52.372;20.672;2023-05-23T09:20:23;100423.91;;;23.52;39.10
38253;BME280;24785;52.372;20.672;2023-05-23T09:30:23;100424.22;;;22.92;41.17
38253;BME280;24785;52.372;20.672;2023-05-23T09:40:30;100413.53;;;23.03;38.79
38253;BME280;24785;52.372;20.672;2023-05-23T09:50:32;100405.56;;;23.91;39.12
38253;BME280;24785;52.372;20.672;2023-05-23T10:00:33;100398.25;;;23.57;37.41
38253;BME280;24785;52.372;20.672;2023-05-23T10:10:48;100396.72;;;24.01;37.95
38253;BME280;24785;52.372;20.672;2023-05-23T10:21:02;100407.31;;;24.71;38.38
38253;BME280;24785;52.372;20.672;2023-05-23T10:31:06;100391.06;;;23.91;36.17
38253;BME280;24785;52.372;20.672;2023-05-23T10:41:12;100375.78;;;24.85;34.29
38253;BME280;24785;52.372;20.672;2023-05-23T10:51:16;100380.47;;;24.58;34.43
38253;BME280;24785;52.372;20.672;2023-05-23T11:01:18;100369.78;;;23.80;35.15
38253;BME280;24785;52.372;20.672;2023-05-23T11:11:20;100369.97;;;24.60;36.51
38253;BME280;24785;52.372;20.672;2023-05-23T11:21:21;100367.19;;;25.50;36.07
38253;BME280;24785;52.372;20.672;2023-05-23T11:31:23;100356.31;;;26.42;34.00
38253;BME280;24785;52.372;20.672;2023-05-23T11:41:24;100346.47;;;26.33;35.09
38253;BME280;24785;52.372;20.672;2023-05-23T11:51:25;100340.34;;;26.58;33.21
38253;BME280;24785;52.372;20.672;2023-05-23T12:01:28;100325.91;;;25.69;32.52
38253;BME280;24785;52.372;20.672;2023-05-23T12:11:31;100328.97;;;26.56;33.35
38253;BME280;24785;52.372;20.672;2023-05-23T12:21:44;100321.56;;;25.68;33.79
38253;BME280;24785;52.372;20.672;2023-05-23T12:31:49;100330.53;;;26.53;34.29
38253;BME280;24785;52.372;20.672;2023-05-23T12:41:51;100318.34;;;26.51;33.13
38253;BME280;24785;52.372;20.672;2023-05-23T12:51:51;100308.94;;;26.55;31.71
38253;BME280;24785;52.372;20.672;2023-05-23T13:01:54;100290.78;;;25.52;33.14
38253;BME280;24785;52.372;20.672;2023-05-23T13:11:55;100294.41;;;26.55;33.83
38253;BME280;24785;52.372;20.672;2023-05-23T13:21:57;100271.03;;;26.24;30.67
38253;BME280;24785;52.372;20.672;2023-05-23T13:31:58;100279.63;;;25.67;34.11
38253;BME280;24785;52.372;20.672;2023-05-23T13:41:59;100271.66;;;26.61;31.97
38253;BME280;24785;52.372;20.672;2023-05-23T13:52:00;100267.22;;;25.88;32.36
38253;BME280;24785;52.372;20.672;2023-05-23T14:02:01;100258.03;;;26.17;33.90
38253;BME280;24785;52.372;20.672;2023-05-23T14:12:02;100262.50;;;25.85;31.58
38253;BME280;24785;52.372;20.672;2023-05-23T14:22:03;100264.28;;;26.11;34.80
38253;BME280;24785;52.372;20.672;2023-05-23T14:32:04;100250.06;;;25.98;32.83
38253;BME280;24785;52.372;20.672;2023-05-23T14:42:05;100251.97;;;25.90;34.28
38253;BME280;24785;52.372;20.672;2023-05-23T14:52:06;100238.28;;;25.97;32.88
38253;BME280;24785;52.372;20.672;2023-05-23T15:02:07;100227.91;;;27.33;30.19
38253;BME280;24785;52.372;20.672;2023-05-23T15:12:08;100227.47;;;27.02;31.06
38253;BME280;24785;52.372;20.672;2023-05-23T15:22:09;100228.66;;;28.22;29.37
38253;BME280;24785;52.372;20.672;2023-05-23T15:32:10;100212.72;;;28.79;26.84
38253;BME280;24785;52.372;20.672;2023-05-23T15:42:11;100205.72;;;29.86;26.30
38253;BME280;24785;52.372;20.672;2023-05-23T15:52:12;100210.03;;;25.97;30.30
38253;BME280;24785;52.372;20.672;2023-05-23T16:02:13;100215.72;;;24.93;34.88
38253;BME280;24785;52.372;20.672;2023-05-23T16:12:15;100207.56;;;24.06;36.96
38253;BME280;24785;52.372;20.672;2023-05-23T16:22:16;100214.56;;;23.77;36.33
38253;BME280;24785;52.372;20.672;2023-05-23T16:32:17;100219.91;;;23.47;36.30
38253;BME280;24785;52.372;20.672;2023-05-23T16:42:18;100215.94;;;23.22;36.70
38253;BME280;24785;52.372;20.672;2023-05-23T16:52:19;100230.34;;;22.61;41.27
38253;BME280;24785;52.372;20.672;2023-05-23T17:02:20;100231.56;;;21.93;43.21
38253;BME280;24785;52.372;20.672;2023-05-23T17:12:21;100231.66;;;21.65;42.46
38253;BME280;24785;52.372;20.672;2023-05-23T17:22:22;100238.59;;;21.31;43.20
38253;BME280;24785;52.372;20.672;2023-05-23T17:32:24;100247.31;;;20.81;47.98
38253;BME280;24785;52.372;20.672;2023-05-23T17:42:26;100257.72;;;20.39;51.34
38253;BME280;24785;52.372;20.672;2023-05-23T17:52:27;100259.44;;;20.07;52.87
38253;BME280;24785;52.372;20.672;2023-05-23T18:02:29;100258.16;;;19.68;53.56
38253;BME280;24785;52.372;20.672;2023-05-23T18:12:30;100266.06;;;19.28;54.22
38253;BME280;24785;52.372;20.672;2023-05-23T18:22:31;100273.69;;;19.01;54.17
38253;BME280;24785;52.372;20.672;2023-05-23T18:32:33;100288.47;;;18.71;56.58
38253;BME280;24785;52.372;20.672;2023-05-23T18:42:35;100308.09;;;18.47;56.16
38253;BME280;24785;52.372;20.672;2023-05-23T18:52:36;100308.03;;;18.26;57.31
38253;BME280;24785;52.372;20.672;2023-05-23T19:02:38;100313.41;;;17.97;60.96
38253;BME280;24785;52.372;20.672;2023-05-23T19:12:44;100317.50;;;17.56;62.10
38253;BME280;24785;52.372;20.672;2023-05-23T19:22:46;100325.50;;;17.35;62.15
38253;BME280;24785;52.372;20.672;2023-05-23T19:32:48;100333.50;;;17.14;63.28
38253;BME280;24785;52.372;20.672;2023-05-23T19:42:50;100337.47;;;17.08;63.14
38253;BME280;24785;52.372;20.672;2023-05-23T19:52:51;100336.03;;;17.19;61.65
38253;BME280;24785;52.372;20.672;2023-05-23T20:02:53;100343.66;;;17.00;64.21
38253;BME280;24785;52.372;20.672;2023-05-23T20:12:53;100342.22;;;17.03;62.95
38253;BME280;24785;52.372;20.672;2023-05-23T20:22:55;100345.59;;;17.17;61.40
38253;BME280;24785;52.372;20.672;2023-05-23T20:32:57;100343.69;;;17.17;61.42
38253;BME280;24785;52.372;20.672;2023-05-23T20:42:58;100342.41;;;17.06;61.63
38253;BME280;24785;52.372;20.672;2023-05-23T20:53:04;100355.13;;;16.97;63.28
38253;BME280;24785;52.372;20.672;2023-05-23T21:03:06;100352.72;;;16.87;62.32
38253;BME280;24785;52.372;20.672;2023-05-23T21:13:06;100361.31;;;16.72;64.21
38253;BME280;24785;52.372;20.672;2023-05-23T21:23:07;100348.53;;;16.63;63.96
38253;BME280;24785;52.372;20.672;2023-05-23T21:33:08;100349.22;;;16.69;63.86
38253;BME280;24785;52.372;20.672;2023-05-23T21:43:09;100350.13;;;16.64;64.35
38253;BME280;24785;52.372;20.672;2023-05-23T21:53:10;100357.72;;;16.54;64.81
38253;BME280;24785;52.372;20.672;2023-05-23T22:03:11;100357.38;;;16.47;65.64
38253;BME280;24785;52.372;20.672;2023-05-23T22:13:12;100355.47;;;16.38;66.00
38253;BME280;24785;52.372;20.672;2023-05-23T22:23:12;100365.16;;;16.31;66.05
38253;BME280;24785;52.372;20.672;2023-05-23T22:33:16;100363.53;;;16.21;66.50
38253;BME280;24785;52.372;20.672;2023-05-23T22:43:17;100357.16;;;16.17;66.41
38253;BME280;24785;52.372;20.672;2023-05-23T22:53:21;100362.25;;;16.19;66.42
38253;BME280;24785;52.372;20.672;2023-05-23T23:03:22;100361.91;;;16.12;66.47
38253;BME280;24785;52.372;20.672;2023-05-23T23:13:23;100358.03;;;16.04;67.09
38253;BME280;24785;52.372;20.672;2023-05-23T23:23:23;100348.09;;;15.91;68.00
38253;BME280;24785;52.372;20.672;2023-05-23T23:33:24;100349.00;;;15.78;68.50
38253;BME280;24785;52.372;20.672;2023-05-23T23:43:25;100359.41;;;15.62;69.30
38253;BME280;24785;52.372;20.672;2023-05-23T23:53:26;100351.81;;;15.50;70.18
